createdAt,value
2019-04-26T00:01:35.492Z,13.92
2019-04-26T00:04:07.733Z,13.90
2019-04-26T00:06:40.150Z,13.89
2019-04-26T00:09:35.825Z,13.80
2019-04-26T00:12:34.788Z,13.74
2019-04-26T00:15:40.462Z,13.67
2019-04-26T00:18:12.796Z,13.59
2019-04-26T00:20:44.333Z,13.56
2019-04-26T00:23:16.149Z,13.47
2019-04-26T00:25:47.390Z,13.49
2019-04-26T00:28:18.980Z,13.52
2019-04-26T00:30:50.087Z,13.50
2019-04-26T00:33:21.475Z,13.51
2019-04-26T00:35:52.654Z,13.53
2019-04-26T00:38:23.873Z,13.51
2019-04-26T00:40:57.016Z,13.55
2019-04-26T00:43:28.991Z,13.51
2019-04-26T00:46:02.800Z,13.50
2019-04-26T00:48:34.739Z,13.49
2019-04-26T00:51:06.795Z,13.53
2019-04-26T00:53:39.756Z,13.47
2019-04-26T00:56:11.632Z,13.50
2019-04-26T00:58:42.883Z,13.46
2019-04-26T01:01:16.512Z,13.55
2019-04-26T01:03:47.645Z,13.51
2019-04-26T01:06:20.941Z,13.51
2019-04-26T01:08:52.205Z,13.38
2019-04-26T01:11:23.875Z,13.27
2019-04-26T01:13:55.143Z,13.21
2019-04-26T01:16:26.479Z,13.22
2019-04-26T01:18:59.564Z,13.12
2019-04-26T01:21:37.298Z,12.95
2019-04-26T01:24:11.421Z,12.92
2019-04-26T01:26:43.279Z,12.83
2019-04-26T01:29:17.167Z,12.91
2019-04-26T01:32:04.798Z,12.96
2019-04-26T01:34:37.481Z,12.81
2019-04-26T01:37:08.992Z,12.77
2019-04-26T01:39:43.630Z,12.70
2019-04-26T01:42:27.140Z,12.69
2019-04-26T01:45:08.660Z,12.52
2019-04-26T01:47:40.879Z,12.54
2019-04-26T01:50:12.839Z,12.61
2019-04-26T01:52:45.804Z,12.71
2019-04-26T01:55:18.313Z,12.71
2019-04-26T01:57:49.812Z,12.71
2019-04-26T02:00:37.204Z,12.55
2019-04-26T02:03:15.562Z,12.67
2019-04-26T02:05:47.134Z,12.53
2019-04-26T02:08:18.877Z,12.54
2019-04-26T02:10:50.181Z,12.40
2019-04-26T02:13:21.369Z,12.47
2019-04-26T02:15:52.656Z,12.52
2019-04-26T02:18:24.080Z,12.51
2019-04-26T02:21:29.842Z,12.49
2019-04-26T02:24:19.961Z,12.50
2019-04-26T02:26:51.766Z,12.45
2019-04-26T02:29:26.838Z,12.44
2019-04-26T02:32:03.771Z,12.41
2019-04-26T02:34:37.996Z,12.38
2019-04-26T02:37:12.542Z,12.38
2019-04-26T02:39:43.946Z,12.25
2019-04-26T02:42:36.835Z,12.31
2019-04-26T02:45:32.730Z,12.25
2019-04-26T02:48:27.152Z,12.11
2019-04-26T02:51:03.434Z,12.04
2019-04-26T02:53:57.609Z,11.97
2019-04-26T02:56:40.137Z,11.98
2019-04-26T02:59:42.462Z,11.89
2019-04-26T03:02:26.591Z,11.78
2019-04-26T03:05:00.976Z,11.68
2019-04-26T03:08:17.468Z,11.73
2019-04-26T03:10:59.121Z,11.72
2019-04-26T03:13:48.848Z,11.74
2019-04-26T03:16:44.781Z,11.72
2019-04-26T03:19:36.232Z,11.74
2019-04-26T03:22:25.711Z,11.75
2019-04-26T03:25:27.818Z,11.64
2019-04-26T03:28:44.444Z,11.61
2019-04-26T03:31:53.521Z,11.66
2019-04-26T03:34:27.897Z,11.68
2019-04-26T03:37:30.059Z,11.66
2019-04-26T03:40:17.116Z,11.70
2019-04-26T03:43:25.450Z,11.77
2019-04-26T03:46:22.239Z,11.77
2019-04-26T03:49:24.697Z,11.76
2019-04-26T03:52:30.063Z,11.66
2019-04-26T03:55:05.242Z,11.68
2019-04-26T03:57:49.677Z,11.43
2019-04-26T04:00:43.426Z,11.54
2019-04-26T04:03:43.061Z,11.67
2019-04-26T04:06:19.558Z,11.70
2019-04-26T04:09:04.983Z,11.79
2019-04-26T04:11:48.818Z,11.83
2019-04-26T04:14:37.898Z,12.00
2019-04-26T04:17:25.815Z,12.11
2019-04-26T04:20:46.181Z,12.10
2019-04-26T04:23:39.775Z,12.16
2019-04-26T04:26:14.651Z,12.08
2019-04-26T04:29:20.649Z,12.00
2019-04-26T04:31:55.570Z,12.19
2019-04-26T04:34:35.935Z,12.28
2019-04-26T04:37:09.375Z,12.46
2019-04-26T04:40:00.168Z,12.57
2019-04-26T04:42:48.753Z,12.73
2019-04-26T04:45:59.418Z,12.84
2019-04-26T04:49:31.294Z,12.88
2019-04-26T04:52:22.911Z,13.05
2019-04-26T04:55:07.166Z,13.26
2019-04-26T04:57:48.154Z,13.49
2019-04-26T05:00:49.310Z,13.76
2019-04-26T05:03:53.171Z,13.88
2019-04-26T05:07:21.586Z,14.22
2019-04-26T05:10:07.131Z,14.68
2019-04-26T05:12:57.454Z,14.98
2019-04-26T05:16:17.796Z,15.24
2019-04-26T05:19:41.413Z,15.73
2019-04-26T05:23:05.194Z,16.71
2019-04-26T05:26:33.605Z,16.71
2019-04-26T05:29:48.263Z,17.25
2019-04-26T05:32:48.616Z,18.15
2019-04-26T05:35:53.897Z,18.15
2019-04-26T05:38:47.894Z,18.69
2019-04-26T05:42:17.067Z,18.82
2019-04-26T05:45:43.148Z,19.24
2019-04-26T05:48:39.952Z,17.59
2019-04-26T05:51:39.832Z,17.57
2019-04-26T05:54:38.689Z,17.83
2019-04-26T05:57:42.159Z,18.43
2019-04-26T06:00:53.705Z,18.76
2019-04-26T06:04:22.906Z,18.86
2019-04-26T06:07:14.028Z,18.16
2019-04-26T06:10:27.014Z,18.04
2019-04-26T06:13:45.927Z,17.80
2019-04-26T06:16:53.125Z,18.07
2019-04-26T06:19:51.954Z,18.07
2019-04-26T06:22:37.191Z,17.96
2019-04-26T06:25:39.323Z,18.60
2019-04-26T06:28:23.959Z,19.09
2019-04-26T06:31:27.743Z,18.79
2019-04-26T06:34:18.276Z,19.67
2019-04-26T06:37:04.352Z,19.67
2019-04-26T06:39:52.241Z,19.65
2019-04-26T06:43:26.585Z,19.51
2019-04-26T06:46:26.676Z,19.22
2019-04-26T06:49:39.862Z,19.65
2019-04-26T06:52:15.167Z,19.95
2019-04-26T06:54:56.400Z,20.88
2019-04-26T06:58:05.047Z,20.45
2019-04-26T07:01:15.936Z,20.96
2019-04-26T07:04:21.867Z,20.40
2019-04-26T07:07:08.219Z,20.78
2019-04-26T07:10:06.365Z,20.63
2019-04-26T07:12:55.509Z,20.44
2019-04-26T07:15:51.768Z,20.73
2019-04-26T07:18:56.171Z,21.05
2019-04-26T07:22:49.904Z,21.27
2019-04-26T07:25:56.595Z,20.97
2019-04-26T07:29:09.391Z,21.71
2019-04-26T07:32:19.050Z,21.88
2019-04-26T07:35:16.808Z,21.44
2019-04-26T07:38:55.773Z,22.07
2019-04-26T07:42:07.414Z,22.35
2019-04-26T07:45:21.457Z,22.55
2019-04-26T07:48:21.879Z,22.90
2019-04-26T07:51:28.202Z,22.39
2019-04-26T07:54:35.824Z,22.72
2019-04-26T07:57:39.594Z,22.72
2019-04-26T08:00:20.057Z,22.83
2019-04-26T08:03:13.062Z,22.93
2019-04-26T08:06:20.626Z,23.04
2019-04-26T08:08:58.459Z,23.14
2019-04-26T08:11:36.426Z,23.29
2019-04-26T08:14:12.554Z,23.53
2019-04-26T08:17:17.454Z,23.44
2019-04-26T08:19:59.714Z,22.73
2019-04-26T08:22:34.509Z,23.02
2019-04-26T08:25:08.301Z,23.48
2019-04-26T08:27:41.620Z,23.56
2019-04-26T08:30:19.027Z,23.07
2019-04-26T08:32:56.342Z,22.91
2019-04-26T08:35:30.524Z,23.33
2019-04-26T08:38:13.743Z,23.52
2019-04-26T08:40:41.457Z,23.49
2019-04-26T08:43:39.550Z,23.33
2019-04-26T08:46:26.256Z,23.24
2019-04-26T08:49:11.471Z,23.57
2019-04-26T08:51:45.654Z,23.78
2019-04-26T08:54:22.771Z,23.32
2019-04-26T08:57:03.301Z,23.96
2019-04-26T08:59:40.952Z,23.82
2019-04-26T09:02:39.280Z,24.19
2019-04-26T09:05:31.253Z,24.39
2019-04-26T09:08:05.617Z,24.66
2019-04-26T09:10:43.218Z,24.70
2019-04-26T09:13:15.954Z,24.78
2019-04-26T09:16:20.233Z,24.78
2019-04-26T09:18:54.305Z,24.69
2019-04-26T09:21:38.929Z,24.90
2019-04-26T09:24:34.333Z,25.19
2019-04-26T09:27:27.416Z,25.21
2019-04-26T09:30:08.547Z,25.20
2019-04-26T09:32:52.683Z,25.73
2019-04-26T09:35:23.651Z,25.59
2019-04-26T09:37:56.109Z,25.51
2019-04-26T09:40:27.413Z,25.29
2019-04-26T09:43:10.528Z,25.25
2019-04-26T09:45:57.044Z,25.53
2019-04-26T09:48:36.649Z,25.74
2019-04-26T09:51:07.817Z,25.95
2019-04-26T09:53:42.851Z,26.11
2019-04-26T09:56:12.400Z,26.20
2019-04-26T09:58:43.537Z,26.54
2019-04-26T10:01:14.793Z,26.31
2019-04-26T10:03:46.396Z,26.47
2019-04-26T10:06:17.562Z,26.84
2019-04-26T10:08:49.174Z,26.71
2019-04-26T10:11:22.382Z,26.58
2019-04-26T10:13:59.453Z,26.89
2019-04-26T10:16:42.184Z,26.97
2019-04-26T10:19:14.749Z,27.11
2019-04-26T10:21:46.238Z,27.16
2019-04-26T10:24:17.936Z,27.67
2019-04-26T10:26:48.972Z,27.44
2019-04-26T10:29:21.684Z,26.91
2019-04-26T10:31:53.342Z,26.92
2019-04-26T10:34:24.678Z,26.88
2019-04-26T10:36:57.118Z,26.89
2019-04-26T10:39:28.672Z,27.09
2019-04-26T10:42:01.149Z,27.25
2019-04-26T10:44:35.788Z,27.65
2019-04-26T10:47:06.071Z,27.97
2019-04-26T10:49:44.577Z,28.05
2019-04-26T10:52:26.618Z,28.48
2019-04-26T10:55:17.444Z,28.12
2019-04-26T10:57:51.518Z,28.18
2019-04-26T11:00:28.676Z,28.48
2019-04-26T11:03:04.454Z,28.61
2019-04-26T11:05:33.555Z,29.03
2019-04-26T11:08:04.858Z,28.61
2019-04-26T11:10:47.951Z,28.67
2019-04-26T11:13:10.847Z,29.00
2019-04-26T11:15:42.241Z,29.59
2019-04-26T11:18:13.714Z,30.04
2019-04-26T11:20:45.707Z,30.55
2019-04-26T11:23:18.871Z,29.40
2019-04-26T11:25:50.291Z,29.35
2019-04-26T11:28:22.906Z,28.89
2019-04-26T11:30:57.307Z,28.68
2019-04-26T11:33:27.404Z,29.12
2019-04-26T11:35:58.664Z,29.21
2019-04-26T11:38:31.248Z,30.00
2019-04-26T11:41:06.238Z,29.84
2019-04-26T11:43:35.668Z,29.27
2019-04-26T11:46:07.507Z,28.90
2019-04-26T11:48:38.812Z,29.28
2019-04-26T11:51:10.627Z,29.43
2019-04-26T11:53:44.697Z,29.71
2019-04-26T11:56:15.680Z,29.34
2019-04-26T11:58:47.067Z,28.81
2019-04-26T12:01:20.430Z,28.58
2019-04-26T12:04:08.910Z,28.43
2019-04-26T12:07:02.067Z,28.32
2019-04-26T12:09:35.994Z,28.41
2019-04-26T12:12:09.219Z,28.20
2019-04-26T12:14:40.379Z,28.59
2019-04-26T12:17:11.595Z,28.47
2019-04-26T12:19:42.770Z,28.53
2019-04-26T12:22:13.866Z,28.55
2019-04-26T12:24:45.084Z,28.43
2019-04-26T12:27:16.640Z,27.92
2019-04-26T12:29:49.533Z,27.80
2019-04-26T12:32:21.105Z,27.65
2019-04-26T12:34:52.307Z,27.67
2019-04-26T12:37:23.556Z,27.68
2019-04-26T12:39:54.729Z,27.73
2019-04-26T12:42:25.894Z,27.79
2019-04-26T12:45:27.829Z,27.86
2019-04-26T12:48:00.089Z,27.94
2019-04-26T12:50:36.414Z,28.11
2019-04-26T12:53:04.338Z,27.99
2019-04-26T12:55:35.684Z,28.19
2019-04-26T12:58:07.091Z,28.10
2019-04-26T13:00:38.924Z,27.96
2019-04-26T13:03:20.090Z,28.09
2019-04-26T13:05:43.450Z,27.74
2019-04-26T13:08:16.909Z,27.18
2019-04-26T13:11:07.943Z,27.27
2019-04-26T13:13:45.138Z,27.21
2019-04-26T13:16:47.595Z,27.33
2019-04-26T13:19:20.941Z,27.27
2019-04-26T13:21:52.385Z,27.12
2019-04-26T13:24:23.894Z,27.23
2019-04-26T13:26:55.091Z,27.22
2019-04-26T13:29:27.199Z,27.29
2019-04-26T13:31:59.601Z,27.40
2019-04-26T13:34:33.356Z,27.54
2019-04-26T13:37:04.057Z,27.39
2019-04-26T13:39:35.160Z,27.19
2019-04-26T13:42:09.441Z,27.36
2019-04-26T13:45:16.354Z,27.20
2019-04-26T13:48:05.142Z,26.83
2019-04-26T13:50:39.755Z,26.93
2019-04-26T13:53:10.948Z,26.85
2019-04-26T13:55:43.149Z,26.99
2019-04-26T13:58:15.424Z,27.03
2019-04-26T14:00:47.108Z,27.21
2019-04-26T14:03:18.116Z,27.31
2019-04-26T14:05:49.339Z,27.51
2019-04-26T14:08:20.629Z,27.65
2019-04-26T14:10:51.781Z,27.71
2019-04-26T14:13:24.948Z,27.86
2019-04-26T14:15:56.027Z,27.94
2019-04-26T14:18:27.142Z,28.04
2019-04-26T14:21:00.010Z,28.07
2019-04-26T14:23:49.374Z,28.02
2019-04-26T14:26:39.856Z,27.98
2019-04-26T14:29:11.529Z,28.03
2019-04-26T14:31:42.977Z,28.02
2019-04-26T14:34:14.400Z,28.05
2019-04-26T14:36:45.848Z,28.16
2019-04-26T14:39:19.663Z,28.16
2019-04-26T14:41:52.837Z,27.95
2019-04-26T14:44:27.290Z,27.62
2019-04-26T14:46:56.950Z,27.58
2019-04-26T14:49:38.983Z,27.45
2019-04-26T14:52:01.587Z,27.21
2019-04-26T14:54:32.814Z,27.18
2019-04-26T14:57:10.327Z,27.11
2019-04-26T14:59:56.642Z,26.94
2019-04-26T15:02:57.632Z,26.82
2019-04-26T15:05:47.891Z,26.87
2019-04-26T15:08:19.073Z,26.95
2019-04-26T15:10:57.627Z,27.07
2019-04-26T15:13:23.579Z,27.01
2019-04-26T15:15:54.601Z,27.04
2019-04-26T15:18:29.175Z,27.20
2019-04-26T15:20:58.723Z,27.15
2019-04-26T15:23:32.883Z,27.18
2019-04-26T15:26:04.557Z,27.08
2019-04-26T15:28:35.567Z,26.96
2019-04-26T15:31:07.081Z,26.99
2019-04-26T15:33:38.190Z,27.05
2019-04-26T15:36:11.230Z,27.08
2019-04-26T15:38:44.985Z,26.88
2019-04-26T15:41:47.006Z,26.75
2019-04-26T15:44:36.108Z,26.71
2019-04-26T15:47:13.100Z,26.63
2019-04-26T15:49:52.935Z,26.49
2019-04-26T15:52:24.347Z,26.42
2019-04-26T15:54:58.955Z,26.43
2019-04-26T15:57:30.905Z,26.45
2019-04-26T15:59:59.315Z,26.51
2019-04-26T16:02:32.021Z,26.53
2019-04-26T16:05:03.524Z,26.51
2019-04-26T16:07:34.986Z,26.61
2019-04-26T16:10:06.542Z,26.48
2019-04-26T16:12:39.938Z,26.34
2019-04-26T16:15:14.715Z,26.14
2019-04-26T16:17:44.950Z,26.00
2019-04-26T16:20:16.578Z,25.81
2019-04-26T16:22:49.224Z,25.66
2019-04-26T16:25:22.980Z,25.59
2019-04-26T16:28:13.775Z,25.59
2019-04-26T16:31:11.011Z,25.53
2019-04-26T16:33:43.082Z,25.50
2019-04-26T16:36:14.373Z,25.41
2019-04-26T16:38:48.602Z,25.28
2019-04-26T16:41:21.755Z,25.33
2019-04-26T16:43:53.330Z,25.16
2019-04-26T16:46:24.942Z,25.10
2019-04-26T16:49:03.792Z,25.01
2019-04-26T16:51:29.071Z,24.93
2019-04-26T16:54:07.560Z,24.90
2019-04-26T16:56:35.986Z,24.87
2019-04-26T16:59:06.718Z,24.81
2019-04-26T17:01:42.137Z,24.81
2019-04-26T17:04:11.606Z,24.81
2019-04-26T17:06:44.935Z,24.82
2019-04-26T17:09:16.091Z,24.75
2019-04-26T17:11:47.340Z,24.68
2019-04-26T17:14:22.302Z,24.70
2019-04-26T17:16:53.211Z,24.66
2019-04-26T17:19:24.359Z,24.64
2019-04-26T17:22:17.355Z,24.65
2019-04-26T17:24:56.123Z,24.66
2019-04-26T17:27:27.169Z,24.32
2019-04-26T17:29:58.236Z,24.19
2019-04-26T17:32:29.310Z,24.06
2019-04-26T17:35:04.821Z,24.06
2019-04-26T17:37:33.434Z,24.04
2019-04-26T17:40:04.879Z,23.86
2019-04-26T17:42:36.735Z,23.76
2019-04-26T17:45:08.631Z,23.70
2019-04-26T17:47:42.434Z,23.64
2019-04-26T17:50:13.886Z,23.56
2019-04-26T17:52:45.076Z,23.50
2019-04-26T17:55:16.338Z,23.36
2019-04-26T17:57:49.880Z,23.25
2019-04-26T18:00:27.130Z,23.24
2019-04-26T18:02:57.369Z,23.15
2019-04-26T18:05:45.061Z,22.94
2019-04-26T18:08:30.471Z,22.91
2019-04-26T18:10:35.608Z,22.87
2019-04-26T18:13:11.285Z,22.71
2019-04-26T18:15:46.930Z,22.73
2019-04-26T18:18:35.892Z,22.61
2019-04-26T18:21:35.051Z,22.53
2019-04-26T18:24:06.497Z,22.51
2019-04-26T18:26:37.742Z,22.41
2019-04-26T18:29:08.994Z,22.36
2019-04-26T18:31:40.407Z,22.27
2019-04-26T18:34:12.791Z,22.21
2019-04-26T18:36:44.004Z,22.07
2019-04-26T18:39:18.107Z,22.01
2019-04-26T18:41:48.222Z,21.96
2019-04-26T18:44:19.516Z,21.92
2019-04-26T18:46:55.638Z,21.86
2019-04-26T18:49:27.195Z,21.76
2019-04-26T18:51:58.268Z,21.89
2019-04-26T18:54:51.332Z,21.85
2019-04-26T18:57:21.343Z,21.81
2019-04-26T18:59:52.986Z,21.75
2019-04-26T19:02:26.018Z,21.74
2019-04-26T19:04:57.427Z,21.67
2019-04-26T19:07:32.315Z,21.58
2019-04-26T19:10:05.126Z,21.61
2019-04-26T19:12:36.995Z,21.51
2019-04-26T19:15:40.368Z,21.51
2019-04-26T19:18:33.827Z,21.37
2019-04-26T19:21:23.321Z,21.43
2019-04-26T19:24:04.913Z,21.37
2019-04-26T19:26:32.981Z,21.24
2019-04-26T19:29:03.251Z,21.23
2019-04-26T19:31:34.518Z,21.24
2019-04-26T19:34:05.814Z,21.23
2019-04-26T19:36:37.037Z,21.15
2019-04-26T19:39:08.529Z,21.18
2019-04-26T19:41:42.062Z,21.17
2019-04-26T19:44:14.634Z,21.24
2019-04-26T19:47:06.705Z,21.21
2019-04-26T19:50:11.226Z,21.23
2019-04-26T19:53:21.182Z,21.21
2019-04-26T19:56:24.596Z,21.20
2019-04-26T19:58:57.361Z,21.13
2019-04-26T20:01:25.792Z,21.20
2019-04-26T20:03:57.008Z,21.15
2019-04-26T20:06:28.255Z,21.08
2019-04-26T20:09:01.950Z,21.06
2019-04-26T20:11:34.594Z,21.00
2019-04-26T20:14:05.769Z,20.85
2019-04-26T20:16:40.798Z,20.84
2019-04-26T20:19:14.943Z,20.77
2019-04-26T20:21:45.430Z,20.77
2019-04-26T20:24:18.316Z,20.73
2019-04-26T20:26:48.723Z,20.70
2019-04-26T20:29:21.482Z,20.74
2019-04-26T20:32:24.005Z,20.58
2019-04-26T20:35:07.706Z,20.57
2019-04-26T20:37:39.013Z,20.48
2019-04-26T20:40:20.369Z,20.41
2019-04-26T20:42:44.085Z,20.36
2019-04-26T20:45:16.987Z,20.33
2019-04-26T20:47:52.005Z,20.42
2019-04-26T20:50:21.764Z,20.40
2019-04-26T20:52:54.015Z,20.33
2019-04-26T20:55:30.759Z,20.32
2019-04-26T20:57:59.855Z,20.17
2019-04-26T21:00:31.704Z,20.12
2019-04-26T21:03:05.908Z,20.08
2019-04-26T21:05:45.882Z,20.03
2019-04-26T21:08:09.378Z,19.98
2019-04-26T21:10:41.771Z,19.93
2019-04-26T21:13:13.357Z,19.89
2019-04-26T21:15:56.045Z,19.77
2019-04-26T21:18:17.575Z,19.70
2019-04-26T21:20:48.828Z,19.69
2019-04-26T21:23:22.148Z,19.63
2019-04-26T21:26:07.049Z,19.59
2019-04-26T21:28:43.966Z,19.50
2019-04-26T21:31:36.413Z,19.53
2019-04-26T21:34:15.446Z,19.52
2019-04-26T21:37:11.425Z,19.51
2019-04-26T21:39:49.374Z,19.55
2019-04-26T21:42:20.954Z,19.43
2019-04-26T21:44:54.911Z,19.40
2019-04-26T21:47:27.550Z,19.39
2019-04-26T21:50:00.759Z,19.35
2019-04-26T21:52:34.303Z,19.39
2019-04-26T21:55:06.616Z,19.40
2019-04-26T21:57:37.753Z,19.38
2019-04-26T22:00:20.864Z,19.40
2019-04-26T22:02:53.732Z,19.28
2019-04-26T22:05:25.058Z,19.24
2019-04-26T22:07:56.229Z,19.27
2019-04-26T22:10:43.657Z,19.27
2019-04-26T22:13:14.988Z,19.21
2019-04-26T22:16:29.392Z,19.05
2019-04-26T22:18:58.856Z,19.11
2019-04-26T22:21:38.907Z,19.12
2019-04-26T22:24:19.538Z,18.98
2019-04-26T22:26:50.838Z,18.90
2019-04-26T22:29:22.958Z,18.64
2019-04-26T22:31:54.822Z,18.63
2019-04-26T22:34:25.963Z,18.67
2019-04-26T22:36:57.279Z,18.50
2019-04-26T22:39:32.762Z,18.50
2019-04-26T22:42:02.749Z,18.44
2019-04-26T22:44:45.487Z,18.46
2019-04-26T22:47:24.048Z,18.22
2019-04-26T22:49:55.736Z,18.24
2019-04-26T22:52:27.121Z,18.07
2019-04-26T22:54:58.577Z,18.07
2019-04-26T22:57:29.992Z,18.05
2019-04-26T23:00:01.197Z,18.05
2019-04-26T23:02:33.803Z,17.99
2019-04-26T23:05:06.054Z,17.93
2019-04-26T23:07:37.367Z,17.95
2019-04-26T23:10:09.609Z,17.79
2019-04-26T23:13:07.559Z,17.85
2019-04-26T23:15:44.581Z,17.75
2019-04-26T23:18:33.550Z,17.78
2019-04-26T23:21:11.903Z,17.74
2019-04-26T23:23:42.737Z,17.71
2019-04-26T23:26:14.542Z,17.59
2019-04-26T23:28:45.711Z,17.45
2019-04-26T23:31:16.639Z,17.52
2019-04-26T23:33:48.303Z,17.58
2019-04-26T23:36:19.711Z,17.49
2019-04-26T23:38:50.672Z,17.55
2019-04-26T23:41:23.492Z,17.55
2019-04-26T23:44:02.282Z,17.53
2019-04-26T23:46:27.079Z,17.45
2019-04-26T23:48:58.344Z,17.36
2019-04-26T23:51:29.399Z,17.23
2019-04-26T23:54:00.539Z,16.93
2019-04-26T23:56:33.195Z,16.89
2019-04-26T23:59:04.628Z,16.82
